createdAt,value
2022-08-19T00:03:12.877Z,49.70
2022-08-19T00:19:25.687Z,52.10
2022-08-19T00:22:42.277Z,53.10
2022-08-19T00:25:48.835Z,52.90
2022-08-19T00:29:26.962Z,52.70
2022-08-19T00:51:01.978Z,51.90
2022-08-19T01:03:57.768Z,50.60
2022-08-19T01:07:40.912Z,49.30
2022-08-19T01:16:17.092Z,50.10
2022-08-19T01:20:13.214Z,50.10
2022-08-19T01:23:32.505Z,50.20
2022-08-19T01:27:53.579Z,51.80
2022-08-19T01:31:35.566Z,51.70
2022-08-19T01:42:30.471Z,51.80
2022-08-19T01:51:57.659Z,52.00
2022-08-19T01:55:58.812Z,51.80
2022-08-19T02:07:47.617Z,50.50
2022-08-19T02:16:45.414Z,48.40
2022-08-19T02:29:26.823Z,48.70
2022-08-19T02:37:14.068Z,50.00
2022-08-19T02:48:14.919Z,49.40
2022-08-19T02:50:55.800Z,49.50
2022-08-19T02:53:25.520Z,49.90
2022-08-19T02:55:54.264Z,49.80
2022-08-19T02:58:25.141Z,49.30
2022-08-19T03:00:57.487Z,50.70
2022-08-19T03:03:29.243Z,51.60
2022-08-19T03:06:14.234Z,51.50
2022-08-19T03:08:43.763Z,51.80
2022-08-19T03:11:16.340Z,51.90
2022-08-19T03:13:45.171Z,52.20
2022-08-19T03:16:18.601Z,52.20
2022-08-19T03:18:47.204Z,51.60
2022-08-19T03:21:17.984Z,51.70
2022-08-19T03:23:46.367Z,51.80
2022-08-19T03:26:17.077Z,50.70
2022-08-19T03:28:51.138Z,50.70
2022-08-19T03:31:44.794Z,50.80
2022-08-19T03:34:13.606Z,51.40
2022-08-19T03:36:42.065Z,51.70
2022-08-19T03:39:11.655Z,52.00
2022-08-19T03:41:45.844Z,52.20
2022-08-19T03:44:17.854Z,52.70
2022-08-19T03:46:53.963Z,54.00
2022-08-19T03:49:27.165Z,53.40
2022-08-19T03:51:57.884Z,53.40
2022-08-19T03:54:27.104Z,52.90
2022-08-19T03:56:57.519Z,52.10
2022-08-19T03:59:28.427Z,51.80
2022-08-19T04:01:59.928Z,51.70
2022-08-19T04:04:31.878Z,51.30
2022-08-19T04:07:03.195Z,52.00
2022-08-19T04:09:31.372Z,50.80
2022-08-19T04:12:00.005Z,50.70
2022-08-19T04:14:31.071Z,51.90
2022-08-19T04:17:05.484Z,52.50
2022-08-19T04:19:38.003Z,52.50
2022-08-19T04:22:06.642Z,53.00
2022-08-19T04:24:36.158Z,53.00
2022-08-19T04:27:08.138Z,53.50
2022-08-19T04:29:37.808Z,53.20
2022-08-19T04:32:08.805Z,53.60
2022-08-19T04:35:02.128Z,53.80
2022-08-19T04:37:27.454Z,53.50
2022-08-19T04:40:17.256Z,54.20
2022-08-19T04:42:45.683Z,54.40
2022-08-19T04:45:17.561Z,54.60
2022-08-19T04:47:57.969Z,54.80
2022-08-19T04:50:27.612Z,55.40
2022-08-19T04:52:56.588Z,55.40
2022-08-19T04:55:26.419Z,55.70
2022-08-19T04:57:54.755Z,56.00
2022-08-19T05:00:23.099Z,55.30
2022-08-19T05:02:55.445Z,56.50
2022-08-19T05:05:23.750Z,56.00
2022-08-19T05:07:52.084Z,55.80
2022-08-19T05:10:21.516Z,55.90
2022-08-19T05:12:49.775Z,55.60
2022-08-19T05:15:18.194Z,55.70
2022-08-19T05:18:06.437Z,55.40
2022-08-19T05:20:53.647Z,55.80
2022-08-19T05:23:23.014Z,54.80
2022-08-19T05:25:52.607Z,54.40
2022-08-19T05:28:21.244Z,54.50
2022-08-19T05:30:51.738Z,54.90
2022-08-19T05:33:20.516Z,52.40
2022-08-19T05:35:50.447Z,53.40
2022-08-19T05:38:19.213Z,52.10
2022-08-19T05:40:49.183Z,52.70
2022-08-19T05:43:18.001Z,52.80
2022-08-19T05:45:46.363Z,52.80
2022-08-19T05:48:15.173Z,51.90
2022-08-19T05:50:45.355Z,51.90
2022-08-19T05:53:17.301Z,51.90
2022-08-19T05:55:45.476Z,51.80
2022-08-19T05:58:13.691Z,50.30
2022-08-19T06:00:42.154Z,50.20
2022-08-19T06:03:12.534Z,51.40
2022-08-19T06:05:49.564Z,49.80
2022-08-19T06:08:34.611Z,48.50
2022-08-19T06:11:22.260Z,49.60
2022-08-19T06:13:59.782Z,49.70
2022-08-19T06:16:32.633Z,49.30
2022-08-19T06:19:03.584Z,49.30
2022-08-19T06:21:32.547Z,49.10
2022-08-19T06:24:03.561Z,49.70
2022-08-19T06:26:32.014Z,49.10
2022-08-19T06:29:00.249Z,48.60
2022-08-19T06:31:30.290Z,47.80
2022-08-19T06:33:58.681Z,47.40
2022-08-19T06:36:32.455Z,48.40
2022-08-19T06:39:02.613Z,47.60
2022-08-19T06:41:31.223Z,47.50
2022-08-19T06:43:59.704Z,46.80
2022-08-19T06:46:28.759Z,46.80
2022-08-19T06:48:57.067Z,47.40
2022-08-19T06:51:25.992Z,46.90
2022-08-19T06:54:02.824Z,47.00
2022-08-19T06:56:34.728Z,46.40
2022-08-19T06:59:04.844Z,46.40
2022-08-19T07:01:38.591Z,46.00
2022-08-19T07:04:07.939Z,46.40
2022-08-19T07:06:43.892Z,46.10
2022-08-19T07:09:18.756Z,46.30
2022-08-19T07:11:48.889Z,46.30
2022-08-19T07:14:19.797Z,46.30
2022-08-19T07:16:49.958Z,46.30
2022-08-19T07:19:19.319Z,46.30
2022-08-19T07:21:48.885Z,47.40
2022-08-19T07:24:19.536Z,46.30
2022-08-19T07:26:51.972Z,46.30
2022-08-19T07:29:25.637Z,45.80
2022-08-19T07:32:00.225Z,46.20
2022-08-19T07:34:30.502Z,46.20
2022-08-19T07:36:59.375Z,46.10
2022-08-19T07:39:32.875Z,46.10
2022-08-19T07:42:04.666Z,47.20
2022-08-19T07:44:32.875Z,46.30
2022-08-19T07:47:01.193Z,45.30
2022-08-19T07:49:30.197Z,45.50
2022-08-19T07:52:02.256Z,46.20
2022-08-19T07:54:35.243Z,46.20
2022-08-19T07:57:04.217Z,45.80
2022-08-19T07:59:32.974Z,46.40
2022-08-19T08:02:01.526Z,45.60
2022-08-19T08:04:47.878Z,45.60
2022-08-19T08:07:33.695Z,46.30
2022-08-19T08:10:11.424Z,46.40
2022-08-19T08:12:58.359Z,46.60
2022-08-19T08:15:42.130Z,45.90
2022-08-19T08:18:11.096Z,44.60
2022-08-19T08:20:40.156Z,43.80
2022-08-19T08:23:27.275Z,45.80
2022-08-19T08:26:00.041Z,44.60
2022-08-19T08:28:30.743Z,44.60
2022-08-19T08:31:00.136Z,45.10
2022-08-19T08:33:34.590Z,44.50
2022-08-19T08:36:04.002Z,45.30
2022-08-19T08:38:39.119Z,45.00
2022-08-19T08:41:21.230Z,43.70
2022-08-19T08:43:53.207Z,46.60
2022-08-19T08:46:30.481Z,45.20
2022-08-19T08:49:04.787Z,43.40
2022-08-19T08:54:11.915Z,44.30
2022-08-19T08:56:43.938Z,41.50
2022-08-19T08:59:18.732Z,43.50
2022-08-19T09:01:46.957Z,43.10
2022-08-19T09:04:15.634Z,41.20
2022-08-19T09:06:52.720Z,40.80
2022-08-19T09:09:25.628Z,42.30
2022-08-19T09:12:07.184Z,41.40
2022-08-19T09:14:50.723Z,41.60
2022-08-19T09:17:20.868Z,38.50
2022-08-19T09:19:55.507Z,40.00
2022-08-19T09:22:26.092Z,40.10
2022-08-19T09:24:56.704Z,38.60
2022-08-19T09:27:42.105Z,38.70
2022-08-19T09:30:15.137Z,37.30
2022-08-19T09:32:44.915Z,36.80
2022-08-19T09:35:14.919Z,36.80
2022-08-19T09:37:43.782Z,35.80
2022-08-19T09:40:14.157Z,35.90
2022-08-19T09:42:49.966Z,33.70
2022-08-19T09:45:23.035Z,35.70
2022-08-19T09:47:54.231Z,35.60
2022-08-19T09:50:24.974Z,36.00
2022-08-19T09:52:57.356Z,34.70
2022-08-19T09:55:30.963Z,34.90
2022-08-19T09:58:01.951Z,35.40
2022-08-19T10:00:31.237Z,38.10
2022-08-19T10:02:59.421Z,36.20
2022-08-19T10:05:45.299Z,34.60
2022-08-19T10:08:18.179Z,33.30
2022-08-19T10:10:47.337Z,34.00
2022-08-19T10:13:22.883Z,34.00
2022-08-19T10:15:52.080Z,33.30
2022-08-19T10:18:22.742Z,33.40
2022-08-19T10:20:53.453Z,35.00
2022-08-19T10:23:22.495Z,32.60
2022-08-19T10:25:51.315Z,33.90
2022-08-19T10:28:20.947Z,32.50
2022-08-19T10:30:51.904Z,35.20
2022-08-19T10:33:53.189Z,33.30
2022-08-19T10:36:11.732Z,32.50
2022-08-19T10:38:40.327Z,31.00
2022-08-19T10:41:23.303Z,31.40
2022-08-19T10:43:56.211Z,32.40
2022-08-19T10:46:26.551Z,32.10
2022-08-19T10:48:55.405Z,32.10
2022-08-19T10:51:47.826Z,32.10
2022-08-19T10:54:16.959Z,30.20
2022-08-19T10:56:53.704Z,29.80
2022-08-19T10:59:31.448Z,29.40
2022-08-19T11:02:05.122Z,28.60
2022-08-19T11:04:34.393Z,29.30
2022-08-19T11:07:05.849Z,30.00
2022-08-19T11:09:42.511Z,30.00
2022-08-19T11:12:11.591Z,30.00
2022-08-19T11:14:41.276Z,30.00
2022-08-19T11:17:09.680Z,29.10
2022-08-19T11:19:37.949Z,27.80
2022-08-19T11:22:06.297Z,28.70
2022-08-19T11:24:38.189Z,28.40
2022-08-19T11:45:44.174Z,28.30
2022-08-19T11:58:18.893Z,26.70
2022-08-19T12:30:58.884Z,27.30
2022-08-19T12:34:23.256Z,26.80
2022-08-19T12:42:37.460Z,24.90
2022-08-19T12:51:31.537Z,25.10
2022-08-19T13:19:54.501Z,24.80
2022-08-19T13:23:37.620Z,24.80
2022-08-19T13:26:20.159Z,24.90
2022-08-19T14:07:44.533Z,22.40
2022-08-19T14:11:38.477Z,21.90
2022-08-19T18:49:19.159Z,30.10
2022-08-19T18:52:00.142Z,34.50
2022-08-19T18:55:02.510Z,36.20
2022-08-19T18:57:52.967Z,34.40
2022-08-19T19:00:51.379Z,37.60
2022-08-19T19:03:29.898Z,38.00
2022-08-19T19:06:11.506Z,41.50
2022-08-19T19:08:47.905Z,41.80
2022-08-19T19:11:39.473Z,40.40
2022-08-19T19:14:45.657Z,39.20
2022-08-19T19:17:45.944Z,42.10
2022-08-19T19:20:23.465Z,39.90
2022-08-19T19:23:18.204Z,36.60
2022-08-19T19:25:51.879Z,36.00
2022-08-19T19:28:30.854Z,38.80
2022-08-19T19:31:04.874Z,36.40
2022-08-19T19:33:42.724Z,33.80
2022-08-19T19:36:22.618Z,31.70
2022-08-19T19:38:56.652Z,30.80
2022-08-19T19:41:32.840Z,29.10
2022-08-19T19:47:17.693Z,28.00
2022-08-19T19:50:13.946Z,28.80
2022-08-19T19:52:47.590Z,27.20
2022-08-19T19:55:30.804Z,27.70
2022-08-19T19:58:00.016Z,27.80
2022-08-19T20:24:18.939Z,28.80
2022-08-19T20:36:30.204Z,28.90
2022-08-19T20:53:38.972Z,29.00
2022-08-19T21:11:12.433Z,29.20
2022-08-19T21:14:42.925Z,29.10
2022-08-19T22:00:37.481Z,32.50
2022-08-19T22:30:38.371Z,35.60
2022-08-19T22:33:43.365Z,35.40
2022-08-19T22:36:58.550Z,36.20
2022-08-19T22:40:42.162Z,36.00
2022-08-19T22:43:58.926Z,35.70
2022-08-19T22:51:53.320Z,35.70
2022-08-19T22:58:31.476Z,36.10
2022-08-19T23:06:01.169Z,37.80
